sensor_id;sensor_type;location;lat;lon;timestamp;pressure;altitude;pressure_sealevel;temperature;humidity
44751;BME280;30477;48.224;11.470;2023-05-07T00:01:30;96004.47;;;13.90;70.05
44751;BME280;30477;48.224;11.470;2023-05-07T00:03:56;95996.50;;;13.83;70.31
44751;BME280;30477;48.224;11.470;2023-05-07T00:06:22;95999.13;;;13.83;70.63
44751;BME280;30477;48.224;11.470;2023-05-07T00:08:47;95997.66;;;13.80;70.30
44751;BME280;30477;48.224;11.470;2023-05-07T00:11:13;95988.22;;;13.79;70.72
44751;BME280;30477;48.224;11.470;2023-05-07T00:13:38;96000.41;;;13.87;70.45
44751;BME280;30477;48.224;11.470;2023-05-07T00:16:04;95997.97;;;13.94;70.35
44751;BME280;30477;48.224;11.470;2023-05-07T00:18:30;95998.31;;;13.99;70.68
44751;BME280;30477;48.224;11.470;2023-05-07T00:20:55;95994.91;;;13.90;70.09
44751;BME280;30477;48.224;11.470;2023-05-07T00:23:21;95991.47;;;13.81;70.36
44751;BME280;30477;48.224;11.470;2023-05-07T00:25:47;95993.91;;;13.67;70.41
44751;BME280;30477;48.224;11.470;2023-05-07T00:28:12;95996.47;;;13.58;71.21
44751;BME280;30477;48.224;11.470;2023-05-07T00:30:37;95996.00;;;13.55;71.17
44751;BME280;30477;48.224;11.470;2023-05-07T00:33:03;95989.19;;;13.62;71.42
44751;BME280;30477;48.224;11.470;2023-05-07T00:35:28;95986.28;;;13.65;71.57
44751;BME280;30477;48.224;11.470;2023-05-07T00:37:54;95981.06;;;13.65;71.25
44751;BME280;30477;48.224;11.470;2023-05-07T00:40:20;95980.88;;;13.58;71.18
44751;BME280;30477;48.224;11.470;2023-05-07T00:42:45;95988.53;;;13.60;71.32
44751;BME280;30477;48.224;11.470;2023-05-07T00:45:12;95992.75;;;13.53;71.19
44751;BME280;30477;48.224;11.470;2023-05-07T00:47:37;95994.03;;;13.49;71.30
44751;BME280;30477;48.224;11.470;2023-05-07T00:50:03;95995.66;;;13.50;71.75
44751;BME280;30477;48.224;11.470;2023-05-07T00:52:29;95999.09;;;13.50;71.80
44751;BME280;30477;48.224;11.470;2023-05-07T00:54:55;96000.41;;;13.54;71.66
44751;BME280;30477;48.224;11.470;2023-05-07T00:57:21;96001.88;;;13.57;71.54
44751;BME280;30477;48.224;11.470;2023-05-07T00:59:48;96002.03;;;13.64;71.56
44751;BME280;30477;48.224;11.470;2023-05-07T01:02:13;96006.44;;;13.63;71.63
44751;BME280;30477;48.224;11.470;2023-05-07T01:04:39;96001.03;;;13.65;71.63
44751;BME280;30477;48.224;11.470;2023-05-07T01:07:04;95992.44;;;13.64;71.40
44751;BME280;30477;48.224;11.470;2023-05-07T01:09:30;95991.78;;;13.62;71.34
44751;BME280;30477;48.224;11.470;2023-05-07T01:11:57;95988.84;;;13.57;71.19
44751;BME280;30477;48.224;11.470;2023-05-07T01:14:23;95985.25;;;13.50;71.46
44751;BME280;30477;48.224;11.470;2023-05-07T01:16:48;95992.41;;;13.48;71.50
44751;BME280;30477;48.224;11.470;2023-05-07T01:19:17;95991.56;;;13.39;71.21
44751;BME280;30477;48.224;11.470;2023-05-07T01:21:47;95987.47;;;13.28;71.60
44751;BME280;30477;48.224;11.470;2023-05-07T01:24:14;95987.34;;;13.30;71.66
44751;BME280;30477;48.224;11.470;2023-05-07T01:26:39;95986.81;;;13.26;71.90
44751;BME280;30477;48.224;11.470;2023-05-07T01:29:05;95981.59;;;13.26;72.21
44751;BME280;30477;48.224;11.470;2023-05-07T01:31:32;95986.53;;;13.29;72.17
44751;BME280;30477;48.224;11.470;2023-05-07T01:33:59;95989.47;;;13.34;72.08
44751;BME280;30477;48.224;11.470;2023-05-07T01:36:25;95978.25;;;13.34;72.24
44751;BME280;30477;48.224;11.470;2023-05-07T01:38:52;95982.97;;;13.38;72.48
44751;BME280;30477;48.224;11.470;2023-05-07T01:41:19;95982.66;;;13.33;72.40
44751;BME280;30477;48.224;11.470;2023-05-07T01:43:45;95974.47;;;13.28;72.32
44751;BME280;30477;48.224;11.470;2023-05-07T01:46:12;95971.84;;;13.20;72.42
44751;BME280;30477;48.224;11.470;2023-05-07T01:48:37;95973.47;;;13.13;72.59
44751;BME280;30477;48.224;11.470;2023-05-07T01:51:04;95972.81;;;13.11;72.60
44751;BME280;30477;48.224;11.470;2023-05-07T01:53:35;95975.72;;;13.16;73.14
44751;BME280;30477;48.224;11.470;2023-05-07T01:56:01;95959.97;;;13.17;72.82
44751;BME280;30477;48.224;11.470;2023-05-07T01:58:26;95962.91;;;13.23;73.13
44751;BME280;30477;48.224;11.470;2023-05-07T02:00:51;95971.53;;;13.23;73.05
44751;BME280;30477;48.224;11.470;2023-05-07T02:03:17;95979.50;;;13.22;72.97
44751;BME280;30477;48.224;11.470;2023-05-07T02:05:42;95973.78;;;13.18;73.00
44751;BME280;30477;48.224;11.470;2023-05-07T02:08:07;95982.72;;;13.15;73.03
44751;BME280;30477;48.224;11.470;2023-05-07T02:10:33;95979.59;;;13.12;72.87
44751;BME280;30477;48.224;11.470;2023-05-07T02:12:58;95983.19;;;13.11;72.93
44751;BME280;30477;48.224;11.470;2023-05-07T02:15:24;95975.03;;;13.06;73.16
44751;BME280;30477;48.224;11.470;2023-05-07T02:18:08;95974.84;;;12.99;72.98
44751;BME280;30477;48.224;11.470;2023-05-07T02:20:34;95982.63;;;12.91;73.45
44751;BME280;30477;48.224;11.470;2023-05-07T02:23:00;95981.25;;;12.78;73.49
44751;BME280;30477;48.224;11.470;2023-05-07T02:25:25;95980.47;;;12.78;73.34
44751;BME280;30477;48.224;11.470;2023-05-07T02:27:50;95980.81;;;12.83;74.00
44751;BME280;30477;48.224;11.470;2023-05-07T02:30:16;95989.59;;;12.90;73.94
44751;BME280;30477;48.224;11.470;2023-05-07T02:32:41;95988.31;;;12.94;73.83
44751;BME280;30477;48.224;11.470;2023-05-07T02:35:07;95977.59;;;12.97;73.66
44751;BME280;30477;48.224;11.470;2023-05-07T02:37:33;95980.69;;;12.93;73.39
44751;BME280;30477;48.224;11.470;2023-05-07T02:39:58;95979.84;;;12.84;73.58
44751;BME280;30477;48.224;11.470;2023-05-07T02:42:23;95983.06;;;12.78;73.78
44751;BME280;30477;48.224;11.470;2023-05-07T02:44:48;95985.47;;;12.71;73.88
44751;BME280;30477;48.224;11.470;2023-05-07T02:47:15;95986.13;;;12.73;73.77
44751;BME280;30477;48.224;11.470;2023-05-07T02:49:40;95991.31;;;12.73;74.06
44751;BME280;30477;48.224;11.470;2023-05-07T02:52:06;95984.66;;;12.71;73.99
44751;BME280;30477;48.224;11.470;2023-05-07T02:54:31;95980.13;;;12.73;74.27
44751;BME280;30477;48.224;11.470;2023-05-07T02:56:57;95980.47;;;12.78;74.10
44751;BME280;30477;48.224;11.470;2023-05-07T02:59:23;95985.81;;;12.76;74.06
44751;BME280;30477;48.224;11.470;2023-05-07T03:01:48;95980.13;;;12.73;74.28
44751;BME280;30477;48.224;11.470;2023-05-07T03:04:15;95984.19;;;12.75;74.40
44751;BME280;30477;48.224;11.470;2023-05-07T03:06:40;95984.03;;;12.77;74.30
44751;BME280;30477;48.224;11.470;2023-05-07T03:09:06;95981.22;;;12.70;74.29
44751;BME280;30477;48.224;11.470;2023-05-07T03:11:31;95977.78;;;12.62;74.46
44751;BME280;30477;48.224;11.470;2023-05-07T03:13:56;95977.78;;;12.62;74.44
44751;BME280;30477;48.224;11.470;2023-05-07T03:16:22;95982.31;;;12.59;74.56
44751;BME280;30477;48.224;11.470;2023-05-07T03:18:47;95984.47;;;12.64;74.75
44751;BME280;30477;48.224;11.470;2023-05-07T03:21:12;95980.75;;;12.67;74.73
44751;BME280;30477;48.224;11.470;2023-05-07T03:23:38;95982.03;;;12.63;74.54
44751;BME280;30477;48.224;11.470;2023-05-07T03:26:03;95980.38;;;12.62;74.73
44751;BME280;30477;48.224;11.470;2023-05-07T03:28:28;95978.75;;;12.61;74.40
44751;BME280;30477;48.224;11.470;2023-05-07T03:30:54;95983.28;;;12.58;74.76
44751;BME280;30477;48.224;11.470;2023-05-07T03:33:19;95979.00;;;12.49;74.32
44751;BME280;30477;48.224;11.470;2023-05-07T03:35:44;95979.94;;;12.40;74.72
44751;BME280;30477;48.224;11.470;2023-05-07T03:38:10;95972.81;;;12.42;74.90
44751;BME280;30477;48.224;11.470;2023-05-07T03:40:35;95975.75;;;12.47;74.92
44751;BME280;30477;48.224;11.470;2023-05-07T03:43:01;95986.34;;;12.54;74.67
44751;BME280;30477;48.224;11.470;2023-05-07T03:45:26;95982.44;;;12.50;74.52
44751;BME280;30477;48.224;11.470;2023-05-07T03:47:51;95982.34;;;12.33;74.40
44751;BME280;30477;48.224;11.470;2023-05-07T03:50:17;95980.88;;;12.31;74.89
44751;BME280;30477;48.224;11.470;2023-05-07T03:52:42;95973.28;;;12.37;75.42
44751;BME280;30477;48.224;11.470;2023-05-07T03:55:08;95985.78;;;12.42;74.77
44751;BME280;30477;48.224;11.470;2023-05-07T03:57:33;95985.44;;;12.37;74.80
44751;BME280;30477;48.224;11.470;2023-05-07T03:59:59;95980.03;;;12.30;75.04
44751;BME280;30477;48.224;11.470;2023-05-07T04:02:24;95981.16;;;12.28;75.43
44751;BME280;30477;48.224;11.470;2023-05-07T04:04:49;95985.03;;;12.24;75.04
44751;BME280;30477;48.224;11.470;2023-05-07T04:07:15;95984.41;;;12.30;75.47
44751;BME280;30477;48.224;11.470;2023-05-07T04:09:40;95987.88;;;12.38;75.17
44751;BME280;30477;48.224;11.470;2023-05-07T04:12:06;95995.00;;;12.36;75.31
44751;BME280;30477;48.224;11.470;2023-05-07T04:14:31;95996.94;;;12.34;75.41
44751;BME280;30477;48.224;11.470;2023-05-07T04:16:58;95995.47;;;12.32;75.40
44751;BME280;30477;48.224;11.470;2023-05-07T04:19:24;95998.72;;;12.34;75.63
44751;BME280;30477;48.224;11.470;2023-05-07T04:21:49;96003.69;;;12.45;75.59
44751;BME280;30477;48.224;11.470;2023-05-07T04:24:15;96000.16;;;12.54;75.40
44751;BME280;30477;48.224;11.470;2023-05-07T04:26:40;96005.69;;;12.59;75.17
44751;BME280;30477;48.224;11.470;2023-05-07T04:29:06;96003.25;;;12.58;74.95
44751;BME280;30477;48.224;11.470;2023-05-07T04:31:31;96007.94;;;12.54;75.11
44751;BME280;30477;48.224;11.470;2023-05-07T04:33:57;96008.66;;;12.65;75.34
44751;BME280;30477;48.224;11.470;2023-05-07T04:36:22;96015.97;;;12.69;75.17
44751;BME280;30477;48.224;11.470;2023-05-07T04:38:48;96010.84;;;12.86;74.81
44751;BME280;30477;48.224;11.470;2023-05-07T04:41:13;96001.16;;;12.96;74.79
44751;BME280;30477;48.224;11.470;2023-05-07T04:43:38;96012.47;;;13.21;74.77
44751;BME280;30477;48.224;11.470;2023-05-07T04:46:04;96013.56;;;13.53;74.37
44751;BME280;30477;48.224;11.470;2023-05-07T04:48:29;96001.06;;;13.97;74.05
44751;BME280;30477;48.224;11.470;2023-05-07T04:50:55;95995.22;;;14.36;73.49
44751;BME280;30477;48.224;11.470;2023-05-07T04:53:20;96000.88;;;14.48;71.80
44751;BME280;30477;48.224;11.470;2023-05-07T04:55:47;96002.81;;;14.54;71.54
44751;BME280;30477;48.224;11.470;2023-05-07T04:58:12;95998.72;;;14.85;71.01
44751;BME280;30477;48.224;11.470;2023-05-07T05:00:38;96005.91;;;15.14;70.00
44751;BME280;30477;48.224;11.470;2023-05-07T05:03:04;96006.31;;;15.34;69.41
44751;BME280;30477;48.224;11.470;2023-05-07T05:05:30;96009.28;;;15.54;68.65
44751;BME280;30477;48.224;11.470;2023-05-07T05:07:55;96007.50;;;15.86;68.29
44751;BME280;30477;48.224;11.470;2023-05-07T05:10:21;96006.09;;;15.98;66.49
44751;BME280;30477;48.224;11.470;2023-05-07T05:12:47;96003.50;;;16.36;66.84
44751;BME280;30477;48.224;11.470;2023-05-07T05:15:12;96001.47;;;16.76;65.39
44751;BME280;30477;48.224;11.470;2023-05-07T05:17:38;96005.97;;;17.27;64.39
44751;BME280;30477;48.224;11.470;2023-05-07T05:20:04;96008.53;;;17.78;63.38
44751;BME280;30477;48.224;11.470;2023-05-07T05:22:30;96006.63;;;18.30;61.32
44751;BME280;30477;48.224;11.470;2023-05-07T05:24:56;96005.47;;;18.39;60.79
44751;BME280;30477;48.224;11.470;2023-05-07T05:27:22;96003.75;;;18.81;60.14
44751;BME280;30477;48.224;11.470;2023-05-07T05:29:47;96005.69;;;19.00;59.48
44751;BME280;30477;48.224;11.470;2023-05-07T05:32:13;95996.72;;;19.30;58.76
44751;BME280;30477;48.224;11.470;2023-05-07T05:34:38;96001.56;;;19.19;58.01
44751;BME280;30477;48.224;11.470;2023-05-07T05:37:03;95998.63;;;19.49;57.49
44751;BME280;30477;48.224;11.470;2023-05-07T05:39:29;95996.03;;;19.69;57.07
44751;BME280;30477;48.224;11.470;2023-05-07T05:41:54;96005.41;;;20.05;56.11
44751;BME280;30477;48.224;11.470;2023-05-07T05:44:20;95996.94;;;20.43;54.66
44751;BME280;30477;48.224;11.470;2023-05-07T05:46:45;95992.09;;;20.66;54.05
44751;BME280;30477;48.224;11.470;2023-05-07T05:49:10;96002.16;;;20.83;53.67
44751;BME280;30477;48.224;11.470;2023-05-07T05:51:36;95995.28;;;20.82;53.26
44751;BME280;30477;48.224;11.470;2023-05-07T05:54:01;95996.00;;;21.16;53.42
44751;BME280;30477;48.224;11.470;2023-05-07T05:56:26;95990.00;;;21.54;52.17
44751;BME280;30477;48.224;11.470;2023-05-07T05:58:52;95991.47;;;21.36;51.74
44751;BME280;30477;48.224;11.470;2023-05-07T06:01:18;95997.16;;;21.78;51.27
44751;BME280;30477;48.224;11.470;2023-05-07T06:03:43;95995.78;;;22.33;50.26
44751;BME280;30477;48.224;11.470;2023-05-07T06:06:09;95997.25;;;22.54;49.48
44751;BME280;30477;48.224;11.470;2023-05-07T06:08:34;95994.28;;;23.05;48.46
44751;BME280;30477;48.224;11.470;2023-05-07T06:11:01;95984.59;;;22.99;47.84
44751;BME280;30477;48.224;11.470;2023-05-07T06:13:26;95994.97;;;23.49;47.95
44751;BME280;30477;48.224;11.470;2023-05-07T06:15:51;95991.72;;;23.66;46.62
44751;BME280;30477;48.224;11.470;2023-05-07T06:18:17;95994.38;;;23.66;46.32
44751;BME280;30477;48.224;11.470;2023-05-07T06:20:42;95998.97;;;23.40;46.10
44751;BME280;30477;48.224;11.470;2023-05-07T06:25:32;95994.78;;;22.77;46.60
44751;BME280;30477;48.224;11.470;2023-05-07T06:27:58;95992.91;;;23.03;46.01
44751;BME280;30477;48.224;11.470;2023-05-07T06:30:23;95997.72;;;22.87;46.33
44751;BME280;30477;48.224;11.470;2023-05-07T06:32:48;96002.00;;;22.63;46.31
44751;BME280;30477;48.224;11.470;2023-05-07T06:35:13;96002.53;;;22.22;47.46
44751;BME280;30477;48.224;11.470;2023-05-07T06:37:39;96001.72;;;22.21;48.54
44751;BME280;30477;48.224;11.470;2023-05-07T06:40:05;95999.88;;;22.28;48.07
44751;BME280;30477;48.224;11.470;2023-05-07T06:42:31;96010.25;;;21.92;48.84
44751;BME280;30477;48.224;11.470;2023-05-07T06:44:56;96016.63;;;22.09;49.03
44751;BME280;30477;48.224;11.470;2023-05-07T06:47:21;96010.25;;;22.23;49.07
44751;BME280;30477;48.224;11.470;2023-05-07T06:49:47;96010.19;;;22.05;49.72
44751;BME280;30477;48.224;11.470;2023-05-07T06:52:12;96004.94;;;22.30;48.64
44751;BME280;30477;48.224;11.470;2023-05-07T06:54:37;96011.09;;;22.49;48.77
44751;BME280;30477;48.224;11.470;2023-05-07T06:57:03;96011.88;;;22.49;48.80
44751;BME280;30477;48.224;11.470;2023-05-07T06:59:28;96008.94;;;22.83;48.12
44751;BME280;30477;48.224;11.470;2023-05-07T07:01:53;96014.16;;;22.89;48.36
44751;BME280;30477;48.224;11.470;2023-05-07T07:04:19;96018.34;;;23.34;47.22
44751;BME280;30477;48.224;11.470;2023-05-07T07:06:45;96011.75;;;23.25;47.29
44751;BME280;30477;48.224;11.470;2023-05-07T07:09:10;96020.78;;;23.36;46.13
44751;BME280;30477;48.224;11.470;2023-05-07T07:11:36;96013.94;;;23.46;46.83
44751;BME280;30477;48.224;11.470;2023-05-07T07:14:01;96011.84;;;23.67;46.44
44751;BME280;30477;48.224;11.470;2023-05-07T07:16:26;96009.09;;;23.92;46.49
44751;BME280;30477;48.224;11.470;2023-05-07T07:18:52;96011.50;;;23.94;46.08
44751;BME280;30477;48.224;11.470;2023-05-07T07:21:17;96012.84;;;23.84;45.52
44751;BME280;30477;48.224;11.470;2023-05-07T07:23:42;96014.63;;;23.72;45.58
44751;BME280;30477;48.224;11.470;2023-05-07T07:26:08;96010.59;;;23.39;45.73
44751;BME280;30477;48.224;11.470;2023-05-07T07:28:33;96010.50;;;23.09;45.54
44751;BME280;30477;48.224;11.470;2023-05-07T07:30:58;96009.75;;;23.39;45.86
44751;BME280;30477;48.224;11.470;2023-05-07T07:33:24;96015.97;;;23.63;44.96
44751;BME280;30477;48.224;11.470;2023-05-07T07:35:49;96016.47;;;23.71;44.64
44751;BME280;30477;48.224;11.470;2023-05-07T07:38:15;96015.53;;;23.47;44.23
44751;BME280;30477;48.224;11.470;2023-05-07T07:40:40;96019.78;;;23.67;45.15
44751;BME280;30477;48.224;11.470;2023-05-07T07:43:05;96021.47;;;24.34;45.36
44751;BME280;30477;48.224;11.470;2023-05-07T07:45:31;96025.75;;;23.93;43.38
44751;BME280;30477;48.224;11.470;2023-05-07T07:47:56;96023.06;;;23.81;42.67
44751;BME280;30477;48.224;11.470;2023-05-07T07:50:22;96019.72;;;24.16;42.44
44751;BME280;30477;48.224;11.470;2023-05-07T07:52:47;96027.47;;;24.41;42.91
44751;BME280;30477;48.224;11.470;2023-05-07T07:55:13;96022.91;;;24.95;42.60
44751;BME280;30477;48.224;11.470;2023-05-07T07:57:39;96016.31;;;25.33;41.74
44751;BME280;30477;48.224;11.470;2023-05-07T08:00:04;96024.75;;;25.59;41.15
44751;BME280;30477;48.224;11.470;2023-05-07T08:02:31;96016.66;;;25.65;41.36
44751;BME280;30477;48.224;11.470;2023-05-07T08:04:56;96016.00;;;26.16;39.85
44751;BME280;30477;48.224;11.470;2023-05-07T08:07:21;96012.94;;;26.24;39.26
44751;BME280;30477;48.224;11.470;2023-05-07T08:09:48;96018.16;;;25.73;38.84
44751;BME280;30477;48.224;11.470;2023-05-07T08:12:14;96014.81;;;25.37;39.67
44751;BME280;30477;48.224;11.470;2023-05-07T08:14:39;96020.00;;;25.72;39.70
44751;BME280;30477;48.224;11.470;2023-05-07T08:17:05;96017.50;;;26.11;38.98
44751;BME280;30477;48.224;11.470;2023-05-07T08:19:30;96020.50;;;25.58;38.99
44751;BME280;30477;48.224;11.470;2023-05-07T08:21:55;96026.84;;;25.85;40.16
44751;BME280;30477;48.224;11.470;2023-05-07T08:24:21;96029.84;;;26.51;39.04
44751;BME280;30477;48.224;11.470;2023-05-07T08:26:46;96031.13;;;25.58;37.97
44751;BME280;30477;48.224;11.470;2023-05-07T08:29:11;96029.44;;;25.28;38.77
44751;BME280;30477;48.224;11.470;2023-05-07T08:31:37;96025.94;;;25.51;38.24
44751;BME280;30477;48.224;11.470;2023-05-07T08:34:04;96021.59;;;25.73;40.22
44751;BME280;30477;48.224;11.470;2023-05-07T08:36:30;96017.91;;;26.54;39.55
44751;BME280;30477;48.224;11.470;2023-05-07T08:38:55;96019.88;;;26.76;38.34
44751;BME280;30477;48.224;11.470;2023-05-07T08:41:21;96023.38;;;25.97;37.44
44751;BME280;30477;48.224;11.470;2023-05-07T08:43:48;96020.03;;;25.61;38.29
44751;BME280;30477;48.224;11.470;2023-05-07T08:46:20;96020.16;;;25.54;37.63
44751;BME280;30477;48.224;11.470;2023-05-07T08:48:50;96022.75;;;26.23;37.57
44751;BME280;30477;48.224;11.470;2023-05-07T08:51:19;96020.16;;;25.95;37.76
44751;BME280;30477;48.224;11.470;2023-05-07T08:53:46;96020.69;;;26.42;37.32
44751;BME280;30477;48.224;11.470;2023-05-07T08:56:14;96024.53;;;26.35;38.11
44751;BME280;30477;48.224;11.470;2023-05-07T08:58:41;96027.09;;;26.97;38.08
44751;BME280;30477;48.224;11.470;2023-05-07T09:01:15;96027.38;;;27.18;36.35
44751;BME280;30477;48.224;11.470;2023-05-07T09:03:41;96032.09;;;26.43;37.36
44751;BME280;30477;48.224;11.470;2023-05-07T09:06:07;96024.84;;;25.23;38.68
44751;BME280;30477;48.224;11.470;2023-05-07T09:08:33;96031.31;;;25.04;39.47
44751;BME280;30477;48.224;11.470;2023-05-07T09:10:58;96029.28;;;25.46;40.04
44751;BME280;30477;48.224;11.470;2023-05-07T09:13:24;96023.63;;;24.79;39.66
44751;BME280;30477;48.224;11.470;2023-05-07T09:15:49;96030.84;;;24.95;40.39
44751;BME280;30477;48.224;11.470;2023-05-07T09:18:15;96025.44;;;24.66;40.21
44751;BME280;30477;48.224;11.470;2023-05-07T09:20:40;96021.06;;;24.48;39.48
44751;BME280;30477;48.224;11.470;2023-05-07T09:23:07;96024.00;;;24.28;40.37
44751;BME280;30477;48.224;11.470;2023-05-07T09:25:34;96021.50;;;23.91;40.61
44751;BME280;30477;48.224;11.470;2023-05-07T09:28:00;96015.75;;;23.95;40.15
44751;BME280;30477;48.224;11.470;2023-05-07T09:30:30;96015.63;;;24.43;40.95
44751;BME280;30477;48.224;11.470;2023-05-07T09:32:57;96020.00;;;23.96;40.29
44751;BME280;30477;48.224;11.470;2023-05-07T09:35:23;96016.53;;;23.83;40.53
44751;BME280;30477;48.224;11.470;2023-05-07T09:37:59;96009.84;;;23.81;40.18
44751;BME280;30477;48.224;11.470;2023-05-07T09:40:27;96018.63;;;23.75;40.29
44751;BME280;30477;48.224;11.470;2023-05-07T09:42:52;96016.84;;;23.57;40.58
44751;BME280;30477;48.224;11.470;2023-05-07T09:45:28;96022.91;;;23.27;41.08
44751;BME280;30477;48.224;11.470;2023-05-07T09:47:58;96020.00;;;23.65;41.80
44751;BME280;30477;48.224;11.470;2023-05-07T09:50:29;96015.03;;;23.87;40.58
44751;BME280;30477;48.224;11.470;2023-05-07T09:52:57;96020.50;;;23.56;41.53
44751;BME280;30477;48.224;11.470;2023-05-07T09:55:23;96011.00;;;23.36;42.68
44751;BME280;30477;48.224;11.470;2023-05-07T09:57:52;96006.28;;;23.57;42.89
44751;BME280;30477;48.224;11.470;2023-05-07T10:00:21;96019.06;;;23.41;41.85
44751;BME280;30477;48.224;11.470;2023-05-07T10:02:52;96018.84;;;22.87;42.33
44751;BME280;30477;48.224;11.470;2023-05-07T10:05:18;96016.34;;;22.49;41.78
44751;BME280;30477;48.224;11.470;2023-05-07T10:07:45;96012.69;;;22.94;43.13
44751;BME280;30477;48.224;11.470;2023-05-07T10:10:11;96017.88;;;23.00;42.32
44751;BME280;30477;48.224;11.470;2023-05-07T10:12:38;96016.22;;;22.62;42.02
44751;BME280;30477;48.224;11.470;2023-05-07T10:15:06;96019.94;;;22.29;40.95
44751;BME280;30477;48.224;11.470;2023-05-07T10:17:36;96013.88;;;22.54;41.81
44751;BME280;30477;48.224;11.470;2023-05-07T10:20:02;96010.75;;;22.39;39.46
44751;BME280;30477;48.224;11.470;2023-05-07T10:22:33;96023.16;;;22.32;40.79
44751;BME280;30477;48.224;11.470;2023-05-07T10:25:02;96015.13;;;22.52;40.32
44751;BME280;30477;48.224;11.470;2023-05-07T10:27:29;96012.69;;;22.50;39.47
44751;BME280;30477;48.224;11.470;2023-05-07T10:32:39;96013.41;;;22.39;41.61
44751;BME280;30477;48.224;11.470;2023-05-07T10:35:10;96021.13;;;22.34;41.51
44751;BME280;30477;48.224;11.470;2023-05-07T10:37:39;96014.72;;;22.48;42.17
44751;BME280;30477;48.224;11.470;2023-05-07T10:40:06;96019.94;;;22.55;41.94
44751;BME280;30477;48.224;11.470;2023-05-07T10:42:32;96011.03;;;22.31;41.13
44751;BME280;30477;48.224;11.470;2023-05-07T10:44:57;96019.81;;;22.18;40.52
44751;BME280;30477;48.224;11.470;2023-05-07T10:47:23;96018.94;;;22.31;41.63
44751;BME280;30477;48.224;11.470;2023-05-07T10:52:18;96012.22;;;22.03;41.91
44751;BME280;30477;48.224;11.470;2023-05-07T10:54:44;96017.91;;;22.00;42.89
44751;BME280;30477;48.224;11.470;2023-05-07T10:57:32;96018.44;;;22.08;43.52
44751;BME280;30477;48.224;11.470;2023-05-07T10:59:59;96024.44;;;21.91;42.72
44751;BME280;30477;48.224;11.470;2023-05-07T11:05:25;96016.63;;;22.09;42.61
44751;BME280;30477;48.224;11.470;2023-05-07T11:07:58;96017.69;;;22.01;42.72
44751;BME280;30477;48.224;11.470;2023-05-07T11:10:50;96013.81;;;22.04;43.38
44751;BME280;30477;48.224;11.470;2023-05-07T11:13:17;96012.84;;;21.98;43.31
44751;BME280;30477;48.224;11.470;2023-05-07T11:15:47;96012.47;;;21.88;43.10
44751;BME280;30477;48.224;11.470;2023-05-07T11:18:15;96015.44;;;22.05;43.04
44751;BME280;30477;48.224;11.470;2023-05-07T11:20:57;96017.63;;;21.76;43.29
44751;BME280;30477;48.224;11.470;2023-05-07T11:26:00;96007.19;;;21.63;43.05
44751;BME280;30477;48.224;11.470;2023-05-07T11:28:28;96006.75;;;21.98;43.53
44751;BME280;30477;48.224;11.470;2023-05-07T11:30:53;96008.16;;;22.00;43.63
44751;BME280;30477;48.224;11.470;2023-05-07T11:33:19;96008.19;;;21.62;41.59
44751;BME280;30477;48.224;11.470;2023-05-07T11:35:45;96009.47;;;21.53;42.43
44751;BME280;30477;48.224;11.470;2023-05-07T11:38:11;96003.72;;;21.62;42.15
44751;BME280;30477;48.224;11.470;2023-05-07T11:40:50;95997.28;;;21.52;41.20
44751;BME280;30477;48.224;11.470;2023-05-07T11:43:16;95996.69;;;21.49;41.93
44751;BME280;30477;48.224;11.470;2023-05-07T11:45:41;95995.03;;;21.62;42.08
44751;BME280;30477;48.224;11.470;2023-05-07T11:48:06;95993.72;;;21.78;42.98
44751;BME280;30477;48.224;11.470;2023-05-07T11:50:32;95992.09;;;21.77;42.14
44751;BME280;30477;48.224;11.470;2023-05-07T11:52:57;95995.19;;;21.67;41.97
44751;BME280;30477;48.224;11.470;2023-05-07T11:55:24;95991.75;;;21.66;44.44
44751;BME280;30477;48.224;11.470;2023-05-07T11:57:50;96000.09;;;21.63;44.20
44751;BME280;30477;48.224;11.470;2023-05-07T12:00:16;95998.13;;;21.45;43.69
44751;BME280;30477;48.224;11.470;2023-05-07T12:02:41;95995.06;;;21.55;44.15
44751;BME280;30477;48.224;11.470;2023-05-07T12:05:07;95989.97;;;21.60;44.30
44751;BME280;30477;48.224;11.470;2023-05-07T12:07:33;95984.88;;;21.65;44.16
44751;BME280;30477;48.224;11.470;2023-05-07T12:09:59;95989.31;;;21.72;44.58
44751;BME280;30477;48.224;11.470;2023-05-07T12:12:24;95991.47;;;21.43;43.90
44751;BME280;30477;48.224;11.470;2023-05-07T12:14:52;95987.59;;;21.45;44.37
44751;BME280;30477;48.224;11.470;2023-05-07T12:17:17;95985.78;;;21.39;43.44
44751;BME280;30477;48.224;11.470;2023-05-07T12:19:43;95984.97;;;21.39;43.92
44751;BME280;30477;48.224;11.470;2023-05-07T12:22:10;95973.44;;;21.46;43.99
44751;BME280;30477;48.224;11.470;2023-05-07T12:24:48;95984.66;;;21.22;43.71
44751;BME280;30477;48.224;11.470;2023-05-07T12:27:14;95987.44;;;21.34;44.71
44751;BME280;30477;48.224;11.470;2023-05-07T12:29:43;95983.38;;;21.38;44.02
44751;BME280;30477;48.224;11.470;2023-05-07T12:32:18;95973.66;;;21.38;43.46
44751;BME280;30477;48.224;11.470;2023-05-07T12:34:45;95976.09;;;21.33;43.38
44751;BME280;30477;48.224;11.470;2023-05-07T12:37:10;95976.91;;;21.27;43.90
44751;BME280;30477;48.224;11.470;2023-05-07T12:39:36;95968.91;;;21.08;42.95
44751;BME280;30477;48.224;11.470;2023-05-07T12:42:01;95971.72;;;21.14;43.45
44751;BME280;30477;48.224;11.470;2023-05-07T12:44:31;95966.63;;;21.25;43.70
44751;BME280;30477;48.224;11.470;2023-05-07T12:46:57;95953.81;;;21.29;43.77
44751;BME280;30477;48.224;11.470;2023-05-07T12:49:23;95962.94;;;21.26;42.44
44751;BME280;30477;48.224;11.470;2023-05-07T12:51:50;95955.66;;;21.28;43.42
44751;BME280;30477;48.224;11.470;2023-05-07T12:54:35;95958.16;;;21.17;42.56
44751;BME280;30477;48.224;11.470;2023-05-07T12:57:07;95963.28;;;20.98;42.59
44751;BME280;30477;48.224;11.470;2023-05-07T12:59:40;95962.47;;;20.91;43.00